Lacrosse, Washington
Current Conditions -  °F | °C
As of 2:53 AM on Friday 24 Oct 2014 (Local Time) from KPUW Reporting Station
Overcast Overcast  
Wind Chill: 44°   Ceiling: 8500
Heat Index: 46°   Visibility: 10mi
Dew Point: 39°   Wind: 5mph
Humidity: 76%   Direction: 230°SW
Pressure: 30.07"   Gusts: NA
Location:  46.7281°N, 117.837°W
Report Text: KPUW 240953Z AUTO 23004KT 10SM FEW065 OVC085 08/04 A3007 RMK AO2 SLP189 T00780039
Loading
Personal Weather Stations






























Interactive Weather Map
Tropical Storm Tracking
New forecast layout! Learn more

10-Day Weather Forecast

Advertisements
Track Severe Weather on mobile